sensor_id;sensor_type;location;lat;lon;timestamp;pressure;altitude;pressure_sealevel;temperature
11792;BMP180;5953;52.372;9.918;2022-08-19T00:01:43;100498.00;;;24.50
11792;BMP180;5953;52.372;9.918;2022-08-19T00:04:21;100500.00;;;24.40
11792;BMP180;5953;52.372;9.918;2022-08-19T00:06:51;100491.00;;;24.40
11792;BMP180;5953;52.372;9.918;2022-08-19T00:09:22;100497.00;;;24.40
11792;BMP180;5953;52.372;9.918;2022-08-19T00:11:52;100484.00;;;24.10
11792;BMP180;5953;52.372;9.918;2022-08-19T00:14:23;100471.00;;;24.10
11792;BMP180;5953;52.372;9.918;2022-08-19T00:16:53;100475.00;;;24.00
11792;BMP180;5953;52.372;9.918;2022-08-19T00:19:22;100482.00;;;24.20
11792;BMP180;5953;52.372;9.918;2022-08-19T00:21:51;100475.00;;;24.20
11792;BMP180;5953;52.372;9.918;2022-08-19T00:24:19;100464.00;;;24.20
11792;BMP180;5953;52.372;9.918;2022-08-19T00:26:47;100476.00;;;24.30
11792;BMP180;5953;52.372;9.918;2022-08-19T00:29:19;100479.00;;;24.20
11792;BMP180;5953;52.372;9.918;2022-08-19T00:31:48;100479.00;;;24.20
11792;BMP180;5953;52.372;9.918;2022-08-19T00:34:21;100476.00;;;24.20
11792;BMP180;5953;52.372;9.918;2022-08-19T00:36:49;100455.00;;;24.10
11792;BMP180;5953;52.372;9.918;2022-08-19T00:39:17;100475.00;;;24.00
11792;BMP180;5953;52.372;9.918;2022-08-19T00:41:47;100464.00;;;24.00
11792;BMP180;5953;52.372;9.918;2022-08-19T00:44:20;100471.00;;;24.00
11792;BMP180;5953;52.372;9.918;2022-08-19T00:46:54;100462.00;;;23.90
11792;BMP180;5953;52.372;9.918;2022-08-19T00:49:29;100448.00;;;23.90
11792;BMP180;5953;52.372;9.918;2022-08-19T00:52:02;100453.00;;;23.80
11792;BMP180;5953;52.372;9.918;2022-08-19T00:54:31;100451.00;;;23.90
11792;BMP180;5953;52.372;9.918;2022-08-19T00:57:01;100439.00;;;23.90
11792;BMP180;5953;52.372;9.918;2022-08-19T00:59:29;100443.00;;;23.90
11792;BMP180;5953;52.372;9.918;2022-08-19T01:02:17;100453.00;;;23.90
11792;BMP180;5953;52.372;9.918;2022-08-19T01:04:47;100444.00;;;23.90
11792;BMP180;5953;52.372;9.918;2022-08-19T01:07:15;100451.00;;;23.90
11792;BMP180;5953;52.372;9.918;2022-08-19T01:09:45;100445.00;;;23.90
11792;BMP180;5953;52.372;9.918;2022-08-19T01:12:14;100445.00;;;24.00
11792;BMP180;5953;52.372;9.918;2022-08-19T01:14:42;100449.00;;;24.00
11792;BMP180;5953;52.372;9.918;2022-08-19T01:17:11;100463.00;;;24.00
11792;BMP180;5953;52.372;9.918;2022-08-19T01:19:41;100467.00;;;23.90
11792;BMP180;5953;52.372;9.918;2022-08-19T01:22:15;100459.00;;;24.00
11792;BMP180;5953;52.372;9.918;2022-08-19T01:24:54;100457.00;;;23.90
11792;BMP180;5953;52.372;9.918;2022-08-19T01:27:22;100449.00;;;23.70
11792;BMP180;5953;52.372;9.918;2022-08-19T01:29:50;100434.00;;;23.60
11792;BMP180;5953;52.372;9.918;2022-08-19T01:32:18;100433.00;;;23.50
11792;BMP180;5953;52.372;9.918;2022-08-19T01:34:59;100434.00;;;23.40
11792;BMP180;5953;52.372;9.918;2022-08-19T01:37:29;100436.00;;;23.50
11792;BMP180;5953;52.372;9.918;2022-08-19T01:39:59;100439.00;;;23.30
11792;BMP180;5953;52.372;9.918;2022-08-19T01:42:31;100443.00;;;23.40
11792;BMP180;5953;52.372;9.918;2022-08-19T01:44:59;100434.00;;;23.40
11792;BMP180;5953;52.372;9.918;2022-08-19T01:47:27;100438.00;;;23.20
11792;BMP180;5953;52.372;9.918;2022-08-19T01:49:55;100422.00;;;23.30
11792;BMP180;5953;52.372;9.918;2022-08-19T01:52:25;100430.00;;;23.20
11792;BMP180;5953;52.372;9.918;2022-08-19T01:54:53;100417.00;;;23.20
11792;BMP180;5953;52.372;9.918;2022-08-19T01:57:23;100431.00;;;23.10
11792;BMP180;5953;52.372;9.918;2022-08-19T01:59:50;100431.00;;;23.20
11792;BMP180;5953;52.372;9.918;2022-08-19T02:02:19;100434.00;;;23.20
11792;BMP180;5953;52.372;9.918;2022-08-19T02:04:47;100432.00;;;23.20
11792;BMP180;5953;52.372;9.918;2022-08-19T02:07:15;100414.00;;;23.20
11792;BMP180;5953;52.372;9.918;2022-08-19T02:09:42;100425.00;;;23.30
11792;BMP180;5953;52.372;9.918;2022-08-19T02:12:10;100423.00;;;23.30
11792;BMP180;5953;52.372;9.918;2022-08-19T02:14:40;100425.00;;;23.30
11792;BMP180;5953;52.372;9.918;2022-08-19T02:17:08;100429.00;;;23.40
11792;BMP180;5953;52.372;9.918;2022-08-19T02:19:36;100420.00;;;23.60
11792;BMP180;5953;52.372;9.918;2022-08-19T02:22:06;100421.00;;;23.60
11792;BMP180;5953;52.372;9.918;2022-08-19T02:24:34;100420.00;;;23.50
11792;BMP180;5953;52.372;9.918;2022-08-19T02:27:02;100422.00;;;23.50
11792;BMP180;5953;52.372;9.918;2022-08-19T02:29:32;100421.00;;;23.40
11792;BMP180;5953;52.372;9.918;2022-08-19T02:32:01;100415.00;;;23.40
11792;BMP180;5953;52.372;9.918;2022-08-19T02:34:31;170125.00;;;229.40
11792;BMP180;5953;52.372;9.918;2022-08-19T02:37:00;235518.00;;;229.40
11792;BMP180;5953;52.372;9.918;2022-08-19T02:39:29;235518.00;;;229.40
11792;BMP180;5953;52.372;9.918;2022-08-19T02:41:56;235518.00;;;229.40
11792;BMP180;5953;52.372;9.918;2022-08-19T02:44:26;235518.00;;;229.40
11792;BMP180;5953;52.372;9.918;2022-08-19T02:46:57;235518.00;;;229.40
11792;BMP180;5953;52.372;9.918;2022-08-19T02:49:27;235518.00;;;229.40
11792;BMP180;5953;52.372;9.918;2022-08-19T02:51:59;235518.00;;;229.40
11792;BMP180;5953;52.372;9.918;2022-08-19T02:54:28;235518.00;;;229.40
11792;BMP180;5953;52.372;9.918;2022-08-19T02:56:56;235518.00;;;229.40
11792;BMP180;5953;52.372;9.918;2022-08-19T02:59:24;235518.00;;;229.40
11792;BMP180;5953;52.372;9.918;2022-08-19T03:01:52;321568.00;;;23.00
11792;BMP180;5953;52.372;9.918;2022-08-19T03:04:20;100430.00;;;23.10
11792;BMP180;5953;52.372;9.918;2022-08-19T03:06:50;100434.00;;;23.20
11792;BMP180;5953;52.372;9.918;2022-08-19T03:09:19;100438.00;;;23.30
11792;BMP180;5953;52.372;9.918;2022-08-19T03:11:47;100434.00;;;23.10
11792;BMP180;5953;52.372;9.918;2022-08-19T03:14:18;100428.00;;;23.20
11792;BMP180;5953;52.372;9.918;2022-08-19T03:16:49;100430.00;;;23.10
11792;BMP180;5953;52.372;9.918;2022-08-19T03:19:18;100438.00;;;23.10
11792;BMP180;5953;52.372;9.918;2022-08-19T03:21:47;100443.00;;;23.10
11792;BMP180;5953;52.372;9.918;2022-08-19T03:24:17;100436.00;;;23.10
11792;BMP180;5953;52.372;9.918;2022-08-19T03:26:47;100446.00;;;23.20
11792;BMP180;5953;52.372;9.918;2022-08-19T03:29:15;100448.00;;;23.30
11792;BMP180;5953;52.372;9.918;2022-08-19T03:31:56;100439.00;;;23.20
11792;BMP180;5953;52.372;9.918;2022-08-19T03:34:29;100433.00;;;23.20
11792;BMP180;5953;52.372;9.918;2022-08-19T03:37:02;100429.00;;;23.00
11792;BMP180;5953;52.372;9.918;2022-08-19T03:39:32;100432.00;;;23.00
11792;BMP180;5953;52.372;9.918;2022-08-19T03:42:00;100439.00;;;23.10
11792;BMP180;5953;52.372;9.918;2022-08-19T03:44:48;100432.00;;;23.10
11792;BMP180;5953;52.372;9.918;2022-08-19T03:47:17;100438.00;;;23.20
11792;BMP180;5953;52.372;9.918;2022-08-19T03:49:44;100443.00;;;23.20
11792;BMP180;5953;52.372;9.918;2022-08-19T03:52:12;100442.00;;;23.20
11792;BMP180;5953;52.372;9.918;2022-08-19T03:54:42;100435.00;;;23.00
11792;BMP180;5953;52.372;9.918;2022-08-19T03:57:09;100439.00;;;23.00
11792;BMP180;5953;52.372;9.918;2022-08-19T03:59:38;100449.00;;;23.00
11792;BMP180;5953;52.372;9.918;2022-08-19T04:02:10;100448.00;;;22.80
11792;BMP180;5953;52.372;9.918;2022-08-19T04:04:39;100435.00;;;22.90
11792;BMP180;5953;52.372;9.918;2022-08-19T04:07:09;100435.00;;;22.90
11792;BMP180;5953;52.372;9.918;2022-08-19T04:09:37;100447.00;;;22.80
11792;BMP180;5953;52.372;9.918;2022-08-19T04:12:07;100448.00;;;22.60
11792;BMP180;5953;52.372;9.918;2022-08-19T04:14:35;100442.00;;;22.50
11792;BMP180;5953;52.372;9.918;2022-08-19T04:17:03;100433.00;;;22.50
11792;BMP180;5953;52.372;9.918;2022-08-19T04:19:33;100443.00;;;22.50
11792;BMP180;5953;52.372;9.918;2022-08-19T04:22:02;100448.00;;;22.40
11792;BMP180;5953;52.372;9.918;2022-08-19T04:24:31;100445.00;;;22.30
11792;BMP180;5953;52.372;9.918;2022-08-19T04:26:59;100441.00;;;22.10
11792;BMP180;5953;52.372;9.918;2022-08-19T04:29:29;100443.00;;;22.20
11792;BMP180;5953;52.372;9.918;2022-08-19T04:31:58;100432.00;;;22.20
11792;BMP180;5953;52.372;9.918;2022-08-19T04:34:36;100439.00;;;22.10
11792;BMP180;5953;52.372;9.918;2022-08-19T04:37:24;100447.00;;;22.20
11792;BMP180;5953;52.372;9.918;2022-08-19T04:39:59;100450.00;;;22.20
11792;BMP180;5953;52.372;9.918;2022-08-19T04:42:44;100457.00;;;22.30
11792;BMP180;5953;52.372;9.918;2022-08-19T04:45:14;100454.00;;;22.40
11792;BMP180;5953;52.372;9.918;2022-08-19T04:47:44;100456.00;;;22.20
11792;BMP180;5953;52.372;9.918;2022-08-19T04:50:25;100459.00;;;22.20
11792;BMP180;5953;52.372;9.918;2022-08-19T04:52:53;100459.00;;;22.30
11792;BMP180;5953;52.372;9.918;2022-08-19T04:55:23;100469.00;;;22.30
11792;BMP180;5953;52.372;9.918;2022-08-19T04:57:52;100467.00;;;22.20
11792;BMP180;5953;52.372;9.918;2022-08-19T05:00:21;100461.00;;;22.30
11792;BMP180;5953;52.372;9.918;2022-08-19T05:02:49;100466.00;;;22.10
11792;BMP180;5953;52.372;9.918;2022-08-19T05:05:17;100455.00;;;22.20
11792;BMP180;5953;52.372;9.918;2022-08-19T05:07:46;100460.00;;;22.20
11792;BMP180;5953;52.372;9.918;2022-08-19T05:10:13;100454.00;;;22.10
11792;BMP180;5953;52.372;9.918;2022-08-19T05:12:41;100469.00;;;22.10
11792;BMP180;5953;52.372;9.918;2022-08-19T05:15:09;100468.00;;;22.10
11792;BMP180;5953;52.372;9.918;2022-08-19T05:17:39;100455.00;;;22.10
11792;BMP180;5953;52.372;9.918;2022-08-19T05:20:28;100457.00;;;22.10
11792;BMP180;5953;52.372;9.918;2022-08-19T05:23:13;100443.00;;;22.10
11792;BMP180;5953;52.372;9.918;2022-08-19T05:25:47;100450.00;;;22.10
11792;BMP180;5953;52.372;9.918;2022-08-19T05:28:15;100445.00;;;22.00
11792;BMP180;5953;52.372;9.918;2022-08-19T05:30:43;100456.00;;;22.00
11792;BMP180;5953;52.372;9.918;2022-08-19T05:33:14;100446.00;;;22.10
11792;BMP180;5953;52.372;9.918;2022-08-19T05:35:42;100451.00;;;22.20
11792;BMP180;5953;52.372;9.918;2022-08-19T05:38:10;100452.00;;;22.10
11792;BMP180;5953;52.372;9.918;2022-08-19T05:40:39;100445.00;;;22.20
11792;BMP180;5953;52.372;9.918;2022-08-19T05:43:08;100443.00;;;22.30
11792;BMP180;5953;52.372;9.918;2022-08-19T05:45:38;100444.00;;;22.40
11792;BMP180;5953;52.372;9.918;2022-08-19T05:48:06;100447.00;;;22.50
11792;BMP180;5953;52.372;9.918;2022-08-19T05:50:40;100454.00;;;22.40
11792;BMP180;5953;52.372;9.918;2022-08-19T05:53:08;100455.00;;;22.50
11792;BMP180;5953;52.372;9.918;2022-08-19T05:55:36;100457.00;;;22.50
11792;BMP180;5953;52.372;9.918;2022-08-19T05:58:06;100449.00;;;22.50
11792;BMP180;5953;52.372;9.918;2022-08-19T06:00:34;100455.00;;;22.20
11792;BMP180;5953;52.372;9.918;2022-08-19T06:03:03;100463.00;;;22.00
11792;BMP180;5953;52.372;9.918;2022-08-19T06:05:40;100463.00;;;22.00
11792;BMP180;5953;52.372;9.918;2022-08-19T06:08:16;100464.00;;;22.20
11792;BMP180;5953;52.372;9.918;2022-08-19T06:10:45;100467.00;;;22.20
11792;BMP180;5953;52.372;9.918;2022-08-19T06:13:12;100484.00;;;22.50
11792;BMP180;5953;52.372;9.918;2022-08-19T06:15:41;100464.00;;;22.60
11792;BMP180;5953;52.372;9.918;2022-08-19T06:18:10;100487.00;;;22.50
11792;BMP180;5953;52.372;9.918;2022-08-19T06:20:40;100484.00;;;22.70
11792;BMP180;5953;52.372;9.918;2022-08-19T06:23:21;100476.00;;;22.70
11792;BMP180;5953;52.372;9.918;2022-08-19T06:25:50;100471.00;;;22.80
11792;BMP180;5953;52.372;9.918;2022-08-19T06:28:18;100478.00;;;22.90
11792;BMP180;5953;52.372;9.918;2022-08-19T06:30:46;100476.00;;;22.80
11792;BMP180;5953;52.372;9.918;2022-08-19T06:33:14;100488.00;;;22.80
11792;BMP180;5953;52.372;9.918;2022-08-19T06:35:45;100491.00;;;22.80
11792;BMP180;5953;52.372;9.918;2022-08-19T06:38:13;100486.00;;;22.80
11792;BMP180;5953;52.372;9.918;2022-08-19T06:40:41;100500.00;;;22.80
11792;BMP180;5953;52.372;9.918;2022-08-19T06:43:14;100494.00;;;22.90
11792;BMP180;5953;52.372;9.918;2022-08-19T06:45:44;100491.00;;;22.70
11792;BMP180;5953;52.372;9.918;2022-08-19T06:48:13;100510.00;;;22.60
11792;BMP180;5953;52.372;9.918;2022-08-19T06:50:45;100500.00;;;22.70
11792;BMP180;5953;52.372;9.918;2022-08-19T06:53:15;100513.00;;;22.80
11792;BMP180;5953;52.372;9.918;2022-08-19T06:55:44;100494.00;;;22.70
11792;BMP180;5953;52.372;9.918;2022-08-19T06:58:12;100498.00;;;22.60
11792;BMP180;5953;52.372;9.918;2022-08-19T07:00:40;100493.00;;;22.40
11792;BMP180;5953;52.372;9.918;2022-08-19T07:03:08;100507.00;;;22.60
11792;BMP180;5953;52.372;9.918;2022-08-19T07:05:40;100513.00;;;22.60
11792;BMP180;5953;52.372;9.918;2022-08-19T07:08:13;100511.00;;;22.60
11792;BMP180;5953;52.372;9.918;2022-08-19T07:10:43;100524.00;;;22.50
11792;BMP180;5953;52.372;9.918;2022-08-19T07:13:12;100521.00;;;22.70
11792;BMP180;5953;52.372;9.918;2022-08-19T07:15:40;100517.00;;;22.80
11792;BMP180;5953;52.372;9.918;2022-08-19T07:18:08;100528.00;;;22.70
11792;BMP180;5953;52.372;9.918;2022-08-19T07:20:37;100534.00;;;22.60
11792;BMP180;5953;52.372;9.918;2022-08-19T07:23:07;100542.00;;;22.70
11792;BMP180;5953;52.372;9.918;2022-08-19T07:25:42;100530.00;;;22.70
11792;BMP180;5953;52.372;9.918;2022-08-19T07:28:18;100535.00;;;22.50
11792;BMP180;5953;52.372;9.918;2022-08-19T07:30:51;100548.00;;;22.40
11792;BMP180;5953;52.372;9.918;2022-08-19T07:33:19;100545.00;;;22.70
11792;BMP180;5953;52.372;9.918;2022-08-19T07:35:47;100547.00;;;22.80
11792;BMP180;5953;52.372;9.918;2022-08-19T07:38:16;100553.00;;;23.00
11792;BMP180;5953;52.372;9.918;2022-08-19T07:40:46;100559.00;;;23.00
11792;BMP180;5953;52.372;9.918;2022-08-19T07:43:14;100533.00;;;23.10
11792;BMP180;5953;52.372;9.918;2022-08-19T07:45:44;100564.00;;;23.20
11792;BMP180;5953;52.372;9.918;2022-08-19T07:48:13;100579.00;;;23.20
11792;BMP180;5953;52.372;9.918;2022-08-19T07:50:42;100576.00;;;23.30
11792;BMP180;5953;52.372;9.918;2022-08-19T07:53:10;100582.00;;;23.40
11792;BMP180;5953;52.372;9.918;2022-08-19T07:55:38;100591.00;;;23.40
11792;BMP180;5953;52.372;9.918;2022-08-19T07:58:12;100591.00;;;23.50
11792;BMP180;5953;52.372;9.918;2022-08-19T08:00:41;100595.00;;;23.50
11792;BMP180;5953;52.372;9.918;2022-08-19T08:03:09;100582.00;;;23.40
11792;BMP180;5953;52.372;9.918;2022-08-19T08:05:38;100581.00;;;23.40
11792;BMP180;5953;52.372;9.918;2022-08-19T08:08:23;100576.00;;;23.40
11792;BMP180;5953;52.372;9.918;2022-08-19T08:11:15;100600.00;;;23.40
11792;BMP180;5953;52.372;9.918;2022-08-19T08:13:47;100598.00;;;23.50
11792;BMP180;5953;52.372;9.918;2022-08-19T08:16:27;100606.00;;;23.50
11792;BMP180;5953;52.372;9.918;2022-08-19T08:18:57;100601.00;;;23.50
11792;BMP180;5953;52.372;9.918;2022-08-19T08:21:26;100594.00;;;23.80
11792;BMP180;5953;52.372;9.918;2022-08-19T08:23:55;100590.00;;;23.90
11792;BMP180;5953;52.372;9.918;2022-08-19T08:26:23;100591.00;;;23.90
11792;BMP180;5953;52.372;9.918;2022-08-19T08:28:53;100588.00;;;24.00
11792;BMP180;5953;52.372;9.918;2022-08-19T08:31:21;100603.00;;;24.20
11792;BMP180;5953;52.372;9.918;2022-08-19T08:33:49;100576.00;;;24.00
11792;BMP180;5953;52.372;9.918;2022-08-19T08:36:17;100580.00;;;24.10
11792;BMP180;5953;52.372;9.918;2022-08-19T08:38:45;100598.00;;;24.00
11792;BMP180;5953;52.372;9.918;2022-08-19T08:41:21;100583.00;;;24.00
11792;BMP180;5953;52.372;9.918;2022-08-19T08:43:53;100578.00;;;24.20
11792;BMP180;5953;52.372;9.918;2022-08-19T08:46:25;100577.00;;;24.40
11792;BMP180;5953;52.372;9.918;2022-08-19T08:49:01;100589.00;;;24.50
11792;BMP180;5953;52.372;9.918;2022-08-19T08:51:34;100601.00;;;24.60
11792;BMP180;5953;52.372;9.918;2022-08-19T08:54:09;100600.00;;;24.60
11792;BMP180;5953;52.372;9.918;2022-08-19T08:56:38;100592.00;;;24.40
11792;BMP180;5953;52.372;9.918;2022-08-19T08:59:12;100601.00;;;24.70
11792;BMP180;5953;52.372;9.918;2022-08-19T09:01:43;100581.00;;;24.50
11792;BMP180;5953;52.372;9.918;2022-08-19T09:04:12;100582.00;;;24.50
11792;BMP180;5953;52.372;9.918;2022-08-19T09:06:46;100587.00;;;24.40
11792;BMP180;5953;52.372;9.918;2022-08-19T09:09:22;100583.00;;;24.70
11792;BMP180;5953;52.372;9.918;2022-08-19T09:11:58;100601.00;;;24.70
11792;BMP180;5953;52.372;9.918;2022-08-19T09:14:37;100593.00;;;24.70
11792;BMP180;5953;52.372;9.918;2022-08-19T09:17:18;100588.00;;;25.10
11792;BMP180;5953;52.372;9.918;2022-08-19T09:19:50;100589.00;;;25.40
11792;BMP180;5953;52.372;9.918;2022-08-19T09:22:19;100578.00;;;25.50
11792;BMP180;5953;52.372;9.918;2022-08-19T09:24:53;100581.00;;;25.90
11792;BMP180;5953;52.372;9.918;2022-08-19T09:27:22;100587.00;;;25.80
11792;BMP180;5953;52.372;9.918;2022-08-19T09:30:14;100582.00;;;25.70
11792;BMP180;5953;52.372;9.918;2022-08-19T09:32:43;100580.00;;;26.10
11792;BMP180;5953;52.372;9.918;2022-08-19T09:35:13;100579.00;;;26.20
11792;BMP180;5953;52.372;9.918;2022-08-19T09:37:41;100581.00;;;26.50
11792;BMP180;5953;52.372;9.918;2022-08-19T09:40:13;100574.00;;;25.80
11792;BMP180;5953;52.372;9.918;2022-08-19T09:42:41;100574.00;;;25.60
11792;BMP180;5953;52.372;9.918;2022-08-19T09:45:20;100577.00;;;26.10
11792;BMP180;5953;52.372;9.918;2022-08-19T09:47:50;100594.00;;;26.40
11792;BMP180;5953;52.372;9.918;2022-08-19T09:50:21;100590.00;;;26.50
11792;BMP180;5953;52.372;9.918;2022-08-19T09:52:49;100601.00;;;26.60
11792;BMP180;5953;52.372;9.918;2022-08-19T09:55:24;100610.00;;;26.40
11792;BMP180;5953;52.372;9.918;2022-08-19T09:57:59;100587.00;;;26.30
11792;BMP180;5953;52.372;9.918;2022-08-19T10:00:29;100590.00;;;26.60
11792;BMP180;5953;52.372;9.918;2022-08-19T10:02:57;100586.00;;;26.70
11792;BMP180;5953;52.372;9.918;2022-08-19T10:05:26;100582.00;;;26.70
11792;BMP180;5953;52.372;9.918;2022-08-19T10:08:15;100586.00;;;26.50
11792;BMP180;5953;52.372;9.918;2022-08-19T10:10:44;100588.00;;;26.30
11792;BMP180;5953;52.372;9.918;2022-08-19T10:13:14;100588.00;;;26.70
11792;BMP180;5953;52.372;9.918;2022-08-19T10:15:44;100593.00;;;27.00
11792;BMP180;5953;52.372;9.918;2022-08-19T10:18:15;100581.00;;;27.10
11792;BMP180;5953;52.372;9.918;2022-08-19T10:20:45;100575.00;;;26.70
11792;BMP180;5953;52.372;9.918;2022-08-19T10:23:19;100583.00;;;27.10
11792;BMP180;5953;52.372;9.918;2022-08-19T10:25:47;100580.00;;;27.40
11792;BMP180;5953;52.372;9.918;2022-08-19T10:28:15;100582.00;;;27.60
11792;BMP180;5953;52.372;9.918;2022-08-19T10:30:46;100587.00;;;27.60
11792;BMP180;5953;52.372;9.918;2022-08-19T10:33:14;100574.00;;;27.80
11792;BMP180;5953;52.372;9.918;2022-08-19T10:36:05;100562.00;;;28.00
11792;BMP180;5953;52.372;9.918;2022-08-19T10:38:33;100564.00;;;28.20
11792;BMP180;5953;52.372;9.918;2022-08-19T10:41:11;100554.00;;;28.10
11792;BMP180;5953;52.372;9.918;2022-08-19T10:43:39;100553.00;;;27.90
11792;BMP180;5953;52.372;9.918;2022-08-19T10:46:10;100559.00;;;28.20
11792;BMP180;5953;52.372;9.918;2022-08-19T10:48:43;100550.00;;;27.90
11792;BMP180;5953;52.372;9.918;2022-08-19T10:51:11;100552.00;;;28.00
11792;BMP180;5953;52.372;9.918;2022-08-19T10:53:57;100547.00;;;28.00
11792;BMP180;5953;52.372;9.918;2022-08-19T10:56:26;100545.00;;;27.70
11792;BMP180;5953;52.372;9.918;2022-08-19T10:59:12;100533.00;;;28.10
11792;BMP180;5953;52.372;9.918;2022-08-19T11:01:44;100546.00;;;28.20
11792;BMP180;5953;52.372;9.918;2022-08-19T11:04:16;100534.00;;;27.80
11792;BMP180;5953;52.372;9.918;2022-08-19T11:06:45;100529.00;;;28.10
11792;BMP180;5953;52.372;9.918;2022-08-19T11:09:14;100529.00;;;28.30
11792;BMP180;5953;52.372;9.918;2022-08-19T11:11:43;100526.00;;;28.20
11792;BMP180;5953;52.372;9.918;2022-08-19T11:14:13;100528.00;;;28.50
11792;BMP180;5953;52.372;9.918;2022-08-19T11:16:43;100534.00;;;28.60
11792;BMP180;5953;52.372;9.918;2022-08-19T11:19:11;100524.00;;;28.50
11792;BMP180;5953;52.372;9.918;2022-08-19T11:21:42;100507.00;;;28.70
11792;BMP180;5953;52.372;9.918;2022-08-19T11:24:16;100512.00;;;28.80
11792;BMP180;5953;52.372;9.918;2022-08-19T11:26:47;100512.00;;;28.90
11792;BMP180;5953;52.372;9.918;2022-08-19T11:29:17;100505.00;;;28.80
11792;BMP180;5953;52.372;9.918;2022-08-19T11:31:48;100500.00;;;28.70
11792;BMP180;5953;52.372;9.918;2022-08-19T11:34:19;100502.00;;;28.80
11792;BMP180;5953;52.372;9.918;2022-08-19T11:36:48;100498.00;;;29.20
11792;BMP180;5953;52.372;9.918;2022-08-19T11:39:19;100509.00;;;29.30
11792;BMP180;5953;52.372;9.918;2022-08-19T11:41:48;100516.00;;;29.40
11792;BMP180;5953;52.372;9.918;2022-08-19T11:44:16;100519.00;;;29.20
11792;BMP180;5953;52.372;9.918;2022-08-19T11:46:45;100510.00;;;29.40
11792;BMP180;5953;52.372;9.918;2022-08-19T11:49:16;100516.00;;;29.40
11792;BMP180;5953;52.372;9.918;2022-08-19T11:51:45;100522.00;;;29.50
11792;BMP180;5953;52.372;9.918;2022-08-19T11:54:14;100522.00;;;29.20
11792;BMP180;5953;52.372;9.918;2022-08-19T11:56:43;100518.00;;;29.30
11792;BMP180;5953;52.372;9.918;2022-08-19T11:59:11;100517.00;;;29.20
11792;BMP180;5953;52.372;9.918;2022-08-19T12:01:40;100513.00;;;29.40
11792;BMP180;5953;52.372;9.918;2022-08-19T12:04:09;100505.00;;;29.30
11792;BMP180;5953;52.372;9.918;2022-08-19T12:06:40;100497.00;;;29.20
11792;BMP180;5953;52.372;9.918;2022-08-19T12:09:09;100480.00;;;29.30
11792;BMP180;5953;52.372;9.918;2022-08-19T12:11:38;100492.00;;;29.60
11792;BMP180;5953;52.372;9.918;2022-08-19T12:14:09;100484.00;;;29.70
11792;BMP180;5953;52.372;9.918;2022-08-19T12:16:40;100483.00;;;29.80
11792;BMP180;5953;52.372;9.918;2022-08-19T12:19:18;100496.00;;;30.00
11792;BMP180;5953;52.372;9.918;2022-08-19T12:21:50;100501.00;;;29.90
11792;BMP180;5953;52.372;9.918;2022-08-19T12:24:19;100500.00;;;29.70
11792;BMP180;5953;52.372;9.918;2022-08-19T12:26:50;100497.00;;;29.90
11792;BMP180;5953;52.372;9.918;2022-08-19T12:29:21;100504.00;;;29.70
11792;BMP180;5953;52.372;9.918;2022-08-19T12:31:57;100494.00;;;29.90
11792;BMP180;5953;52.372;9.918;2022-08-19T12:34:29;100489.00;;;30.10
11792;BMP180;5953;52.372;9.918;2022-08-19T12:37:01;100492.00;;;30.20
11792;BMP180;5953;52.372;9.918;2022-08-19T12:39:29;100496.00;;;30.40
11792;BMP180;5953;52.372;9.918;2022-08-19T12:41:58;100499.00;;;30.50
11792;BMP180;5953;52.372;9.918;2022-08-19T12:44:26;100489.00;;;30.70
11792;BMP180;5953;52.372;9.918;2022-08-19T12:46:57;100497.00;;;30.60
11792;BMP180;5953;52.372;9.918;2022-08-19T12:49:27;100499.00;;;30.80
11792;BMP180;5953;52.372;9.918;2022-08-19T12:52:16;100499.00;;;30.80
11792;BMP180;5953;52.372;9.918;2022-08-19T12:54:48;100501.00;;;30.60
11792;BMP180;5953;52.372;9.918;2022-08-19T12:57:21;100508.00;;;30.60
11792;BMP180;5953;52.372;9.918;2022-08-19T12:59:59;100496.00;;;30.20
11792;BMP180;5953;52.372;9.918;2022-08-19T13:02:30;100480.00;;;30.30
11792;BMP180;5953;52.372;9.918;2022-08-19T13:05:07;100500.00;;;30.60
11792;BMP180;5953;52.372;9.918;2022-08-19T13:07:40;100493.00;;;30.70
11792;BMP180;5953;52.372;9.918;2022-08-19T13:10:11;100503.00;;;30.90
11792;BMP180;5953;52.372;9.918;2022-08-19T13:12:41;100491.00;;;30.80
11792;BMP180;5953;52.372;9.918;2022-08-19T13:15:10;100488.00;;;30.70
11792;BMP180;5953;52.372;9.918;2022-08-19T13:17:41;100485.00;;;30.70
11792;BMP180;5953;52.372;9.918;2022-08-19T13:20:10;100489.00;;;30.80
11792;BMP180;5953;52.372;9.918;2022-08-19T13:22:39;100489.00;;;30.90
11792;BMP180;5953;52.372;9.918;2022-08-19T13:25:08;100479.00;;;30.70
11792;BMP180;5953;52.372;9.918;2022-08-19T13:27:37;100483.00;;;31.00
11792;BMP180;5953;52.372;9.918;2022-08-19T13:30:07;100478.00;;;31.20
11792;BMP180;5953;52.372;9.918;2022-08-19T13:32:52;100493.00;;;31.10
11792;BMP180;5953;52.372;9.918;2022-08-19T13:35:43;100487.00;;;31.20
11792;BMP180;5953;52.372;9.918;2022-08-19T13:38:14;100482.00;;;31.10
11792;BMP180;5953;52.372;9.918;2022-08-19T13:40:42;100493.00;;;31.20
11792;BMP180;5953;52.372;9.918;2022-08-19T13:43:10;100479.00;;;31.30
11792;BMP180;5953;52.372;9.918;2022-08-19T13:45:50;100491.00;;;31.40
11792;BMP180;5953;52.372;9.918;2022-08-19T13:48:19;100494.00;;;31.20
11792;BMP180;5953;52.372;9.918;2022-08-19T13:50:47;100488.00;;;31.10
11792;BMP180;5953;52.372;9.918;2022-08-19T13:53:17;100486.00;;;31.20
11792;BMP180;5953;52.372;9.918;2022-08-19T13:55:45;100486.00;;;31.00
11792;BMP180;5953;52.372;9.918;2022-08-19T13:58:13;100482.00;;;31.20
11792;BMP180;5953;52.372;9.918;2022-08-19T14:00:45;100481.00;;;31.40
11792;BMP180;5953;52.372;9.918;2022-08-19T14:03:14;100492.00;;;31.20
11792;BMP180;5953;52.372;9.918;2022-08-19T14:05:42;100491.00;;;31.00
11792;BMP180;5953;52.372;9.918;2022-08-19T14:08:10;100487.00;;;31.30
11792;BMP180;5953;52.372;9.918;2022-08-19T14:10:42;100476.00;;;31.40
11792;BMP180;5953;52.372;9.918;2022-08-19T14:13:14;100481.00;;;31.40
11792;BMP180;5953;52.372;9.918;2022-08-19T14:15:42;100486.00;;;31.60
11792;BMP180;5953;52.372;9.918;2022-08-19T14:18:10;100483.00;;;31.50
11792;BMP180;5953;52.372;9.918;2022-08-19T14:20:38;100480.00;;;31.70
11792;BMP180;5953;52.372;9.918;2022-08-19T14:23:06;100488.00;;;31.90
11792;BMP180;5953;52.372;9.918;2022-08-19T14:25:34;235518.00;;;229.40
11792;BMP180;5953;52.372;9.918;2022-08-19T14:28:03;235518.00;;;229.40
11792;BMP180;5953;52.372;9.918;2022-08-19T14:30:34;235518.00;;;229.40